createdAt,value
2022-10-04T00:01:51.308Z,11.50
2022-10-04T00:04:24.530Z,11.50
2022-10-04T00:06:59.387Z,11.50
2022-10-04T00:09:33.382Z,11.50
2022-10-04T00:12:02.826Z,11.50
2022-10-04T00:14:34.041Z,11.50
2022-10-04T00:17:11.513Z,11.50
2022-10-04T00:19:45.136Z,11.60
2022-10-04T00:22:17.395Z,11.50
2022-10-04T00:25:22.632Z,11.50
2022-10-04T00:28:27.870Z,11.50
2022-10-04T00:31:14.531Z,11.40
2022-10-04T00:33:44.140Z,11.40
2022-10-04T00:36:32.123Z,11.50
2022-10-04T00:39:32.787Z,11.50
2022-10-04T00:42:10.329Z,11.40
2022-10-04T00:44:45.556Z,11.40
2022-10-04T00:47:31.788Z,11.40
2022-10-04T00:50:09.509Z,11.40
2022-10-04T00:52:42.366Z,11.40
2022-10-04T00:55:23.705Z,11.50
2022-10-04T00:57:54.839Z,11.50
2022-10-04T01:00:23.280Z,11.50
2022-10-04T01:02:57.874Z,11.50
2022-10-04T01:05:30.045Z,11.50
2022-10-04T01:08:05.146Z,11.50
2022-10-04T01:10:41.614Z,11.50
2022-10-04T01:13:14.302Z,11.50
2022-10-04T01:15:46.393Z,11.50
2022-10-04T01:18:17.409Z,11.50
2022-10-04T01:20:55.426Z,11.50
2022-10-04T01:23:36.882Z,11.40
2022-10-04T01:26:06.214Z,11.40
2022-10-04T01:28:35.510Z,11.40
2022-10-04T01:31:03.697Z,11.40
2022-10-04T01:33:31.790Z,11.40
2022-10-04T01:35:59.918Z,11.40
2022-10-04T01:38:27.956Z,11.40
2022-10-04T01:41:01.042Z,11.40
2022-10-04T01:43:33.457Z,11.40
2022-10-04T01:46:06.430Z,11.40
2022-10-04T01:48:37.688Z,11.40
2022-10-04T01:51:10.027Z,11.40
2022-10-04T01:53:45.576Z,11.40
2022-10-04T01:56:18.707Z,11.50
2022-10-04T01:58:50.154Z,11.50
2022-10-04T02:01:23.502Z,11.50
2022-10-04T02:03:58.842Z,11.50
2022-10-04T02:06:27.282Z,11.50
2022-10-04T02:08:57.662Z,11.50
2022-10-04T02:11:31.329Z,11.50
2022-10-04T02:14:00.437Z,11.40
2022-10-04T02:16:28.739Z,11.40
2022-10-04T02:18:57.414Z,11.40
2022-10-04T02:21:25.691Z,11.40
2022-10-04T02:23:54.525Z,11.40
2022-10-04T02:26:22.630Z,11.40
2022-10-04T02:28:52.554Z,11.40
2022-10-04T02:31:40.366Z,11.40
2022-10-04T02:34:09.485Z,11.40
2022-10-04T02:36:39.505Z,11.40
2022-10-04T02:39:16.461Z,11.30
2022-10-04T02:41:48.085Z,11.30
2022-10-04T02:44:21.841Z,11.30
2022-10-04T02:46:54.884Z,11.30
2022-10-04T02:49:31.943Z,11.30
2022-10-04T02:52:05.309Z,11.30
2022-10-04T02:54:41.058Z,11.30
2022-10-04T02:57:17.087Z,11.30
2022-10-04T02:59:46.961Z,11.30
2022-10-04T03:02:30.094Z,11.30
2022-10-04T03:05:05.858Z,11.30
2022-10-04T03:07:35.699Z,11.40
2022-10-04T03:10:09.057Z,11.40
2022-10-04T03:12:38.863Z,11.40
2022-10-04T03:15:10.668Z,11.30
2022-10-04T03:17:40.796Z,11.30
2022-10-04T03:20:12.737Z,11.30
2022-10-04T03:22:46.107Z,11.30
2022-10-04T03:25:19.832Z,11.40
2022-10-04T03:27:48.779Z,11.40
2022-10-04T03:30:20.682Z,11.40
2022-10-04T03:32:49.486Z,11.40
2022-10-04T03:35:28.046Z,11.40
2022-10-04T03:37:58.221Z,11.40
2022-10-04T03:40:30.303Z,11.30
2022-10-04T03:43:00.360Z,11.40
2022-10-04T03:45:30.810Z,11.40
2022-10-04T03:48:05.593Z,11.40
2022-10-04T03:50:39.051Z,11.30
2022-10-04T03:53:13.082Z,11.30
2022-10-04T03:55:43.630Z,11.30
2022-10-04T03:58:13.875Z,11.30
2022-10-04T04:00:47.583Z,11.30
2022-10-04T04:03:20.369Z,11.30
2022-10-04T04:05:53.938Z,11.30
2022-10-04T04:08:29.589Z,11.30
2022-10-04T04:10:59.975Z,11.30
2022-10-04T04:13:32.298Z,11.30
2022-10-04T04:16:03.782Z,11.30
2022-10-04T04:18:35.202Z,11.30
2022-10-04T04:21:06.239Z,11.30
2022-10-04T04:23:37.874Z,11.30
2022-10-04T04:26:19.746Z,11.30
2022-10-04T04:28:51.503Z,11.30
2022-10-04T04:31:24.683Z,11.30
2022-10-04T04:34:00.260Z,11.30
2022-10-04T04:36:29.606Z,11.30
2022-10-04T04:39:26.057Z,11.30
2022-10-04T04:41:54.242Z,11.30
2022-10-04T04:44:29.337Z,11.30
2022-10-04T04:47:00.333Z,11.40
2022-10-04T04:49:31.266Z,11.40
2022-10-04T04:52:00.029Z,11.30
2022-10-04T04:54:29.048Z,11.30
2022-10-04T04:56:58.034Z,11.30
2022-10-04T04:59:28.144Z,11.30
2022-10-04T05:01:56.216Z,11.30
2022-10-04T05:04:26.259Z,11.30
2022-10-04T05:07:06.542Z,11.30
2022-10-04T05:09:36.418Z,11.40
2022-10-04T05:12:09.529Z,11.40
2022-10-04T05:14:41.097Z,11.40
2022-10-04T05:17:09.125Z,11.40
2022-10-04T05:19:40.577Z,11.40
2022-10-04T05:22:11.520Z,11.40
2022-10-04T05:24:42.322Z,11.40
2022-10-04T05:27:17.645Z,11.40
2022-10-04T05:29:58.716Z,11.30
2022-10-04T05:32:34.360Z,11.30
2022-10-04T05:35:03.979Z,11.30
2022-10-04T05:37:53.260Z,11.30
2022-10-04T05:40:36.313Z,11.30
2022-10-04T05:43:22.150Z,11.40
2022-10-04T05:46:14.200Z,11.40
2022-10-04T05:48:44.282Z,11.40
2022-10-04T05:51:20.925Z,11.40
2022-10-04T05:53:49.962Z,11.30
2022-10-04T05:56:46.566Z,11.30
2022-10-04T05:59:27.666Z,11.40
2022-10-04T06:02:04.860Z,11.30
2022-10-04T06:04:45.774Z,11.30
2022-10-04T06:07:25.221Z,11.30
2022-10-04T06:10:06.121Z,11.30
2022-10-04T06:12:45.958Z,11.30
2022-10-04T06:15:29.702Z,11.30
2022-10-04T06:18:14.938Z,11.40
2022-10-04T06:21:04.089Z,11.50
2022-10-04T06:23:37.650Z,11.50
2022-10-04T06:26:12.225Z,11.60
2022-10-04T06:28:43.185Z,11.70
2022-10-04T06:31:46.936Z,11.80
2022-10-04T06:34:51.890Z,12.00
2022-10-04T06:37:35.420Z,12.10
2022-10-04T06:40:38.580Z,12.20
2022-10-04T06:43:32.310Z,12.20
2022-10-04T06:46:09.894Z,12.10
2022-10-04T06:48:54.196Z,12.00
2022-10-04T06:51:41.642Z,12.00
2022-10-04T06:54:27.890Z,12.10
2022-10-04T06:57:23.741Z,12.20
2022-10-04T07:00:06.135Z,12.30
2022-10-04T07:02:40.362Z,12.50
2022-10-04T07:05:19.937Z,12.70
2022-10-04T07:08:06.370Z,12.90
2022-10-04T07:10:38.930Z,13.10
2022-10-04T07:13:22.534Z,13.20
2022-10-04T07:16:00.339Z,13.30
2022-10-04T07:18:32.758Z,13.50
2022-10-04T07:21:06.771Z,13.50
2022-10-04T07:23:40.065Z,13.70
2022-10-04T07:26:20.818Z,13.80
2022-10-04T07:29:09.040Z,14.00
2022-10-04T07:31:38.208Z,14.20
2022-10-04T07:34:12.484Z,14.30
2022-10-04T07:36:46.274Z,14.40
2022-10-04T07:39:18.441Z,14.60
2022-10-04T07:41:52.310Z,14.70
2022-10-04T07:44:32.684Z,14.90
2022-10-04T07:47:04.609Z,15.00
2022-10-04T07:49:39.404Z,14.90
2022-10-04T07:52:25.243Z,14.80
2022-10-04T07:55:02.090Z,14.70
2022-10-04T07:57:38.759Z,14.80
2022-10-04T08:00:16.863Z,15.10
2022-10-04T08:02:57.341Z,15.20
2022-10-04T08:05:30.279Z,15.40
2022-10-04T08:08:16.737Z,15.70
2022-10-04T08:10:57.673Z,15.90
2022-10-04T08:13:35.049Z,16.20
2022-10-04T08:16:11.366Z,16.40
2022-10-04T08:18:48.533Z,16.80
2022-10-04T08:21:23.546Z,16.90
2022-10-04T08:24:08.395Z,16.80
2022-10-04T08:26:51.053Z,16.70
2022-10-04T08:29:42.684Z,16.60
2022-10-04T08:32:23.303Z,16.40
2022-10-04T08:35:16.305Z,16.40
2022-10-04T08:37:55.829Z,16.30
2022-10-04T08:41:11.750Z,16.30
2022-10-04T08:44:12.722Z,16.10
2022-10-04T08:47:19.888Z,16.10
2022-10-04T08:50:23.377Z,16.10
2022-10-04T08:53:18.380Z,16.10
2022-10-04T08:56:07.059Z,15.90
2022-10-04T08:59:06.983Z,15.90
2022-10-04T09:01:56.937Z,16.00
2022-10-04T09:04:57.422Z,16.00
2022-10-04T09:07:58.639Z,16.00
2022-10-04T09:11:06.015Z,16.10
2022-10-04T09:13:43.470Z,16.10
2022-10-04T09:16:18.180Z,16.10
2022-10-04T09:19:03.184Z,16.20
2022-10-04T09:21:50.514Z,16.40
2022-10-04T09:25:06.138Z,16.40
2022-10-04T09:27:55.579Z,16.40
2022-10-04T09:30:31.026Z,16.50
2022-10-04T09:33:26.736Z,16.80
2022-10-04T09:36:16.277Z,17.00
2022-10-04T09:39:29.616Z,16.90
2022-10-04T09:42:25.489Z,16.90
2022-10-04T09:45:11.778Z,16.80
2022-10-04T09:47:45.809Z,16.70
2022-10-04T09:50:56.983Z,16.80
2022-10-04T09:53:41.036Z,16.80
2022-10-04T09:56:45.887Z,16.90
2022-10-04T09:59:54.159Z,17.10
2022-10-04T10:03:11.089Z,17.20
2022-10-04T10:06:24.430Z,17.20
2022-10-04T10:09:07.254Z,17.00
2022-10-04T10:12:01.488Z,16.70
2022-10-04T10:15:04.634Z,16.80
2022-10-04T10:17:41.612Z,17.50
2022-10-04T10:20:40.811Z,18.00
2022-10-04T10:23:30.027Z,18.30
2022-10-04T10:26:22.791Z,18.80
2022-10-04T10:29:21.054Z,19.20
2022-10-04T10:32:11.185Z,19.20
2022-10-04T10:35:12.254Z,19.40
2022-10-04T10:37:53.743Z,19.40
2022-10-04T10:40:40.893Z,19.20
2022-10-04T10:43:23.131Z,19.10
2022-10-04T10:46:15.433Z,18.80
2022-10-04T10:49:05.252Z,18.80
2022-10-04T10:52:11.855Z,18.80
2022-10-04T10:55:00.822Z,18.90
2022-10-04T10:57:57.959Z,19.30
2022-10-04T11:00:35.205Z,19.70
2022-10-04T11:03:38.429Z,20.00
2022-10-04T11:06:20.418Z,20.30
2022-10-04T11:09:32.688Z,20.50
2022-10-04T11:12:44.409Z,20.60
2022-10-04T11:15:41.134Z,20.10
2022-10-04T11:18:51.078Z,19.70
2022-10-04T11:21:56.871Z,19.50
2022-10-04T11:25:04.825Z,19.30
2022-10-04T11:27:48.954Z,19.10
2022-10-04T11:30:25.295Z,19.00
2022-10-04T11:33:33.924Z,19.10
2022-10-04T11:36:21.324Z,19.30
2022-10-04T11:39:11.810Z,19.60
2022-10-04T11:41:55.090Z,19.60
2022-10-04T11:45:05.564Z,19.30
2022-10-04T11:47:45.348Z,19.10
2022-10-04T11:50:28.587Z,19.10
2022-10-04T11:53:34.710Z,18.80
2022-10-04T11:56:22.337Z,18.90
2022-10-04T11:59:11.875Z,18.90
2022-10-04T12:02:10.891Z,19.10
2022-10-04T12:05:05.443Z,19.10
2022-10-04T12:07:50.488Z,19.10
2022-10-04T12:10:29.187Z,19.20
2022-10-04T12:13:32.722Z,19.10
2022-10-04T12:16:24.235Z,19.00
2022-10-04T12:19:16.060Z,19.00
2022-10-04T12:21:59.361Z,18.90
2022-10-04T12:24:53.038Z,19.00
2022-10-04T12:27:52.304Z,19.00
2022-10-04T12:30:31.999Z,19.10
2022-10-04T12:33:10.313Z,19.00
2022-10-04T12:36:06.488Z,19.00
2022-10-04T12:39:05.347Z,19.00
2022-10-04T12:41:46.410Z,19.00
2022-10-04T12:44:29.855Z,18.90
2022-10-04T12:47:16.277Z,18.80
2022-10-04T12:49:56.383Z,18.80
2022-10-04T12:52:27.974Z,18.80
2022-10-04T12:55:03.555Z,18.80
2022-10-04T12:57:45.663Z,18.70
2022-10-04T13:00:21.329Z,18.70
2022-10-04T13:03:19.507Z,18.70
2022-10-04T13:06:02.421Z,18.60
2022-10-04T13:08:59.063Z,18.60
2022-10-04T13:11:50.262Z,18.60
2022-10-04T13:14:36.066Z,18.60
2022-10-04T13:17:30.425Z,18.60
2022-10-04T13:20:32.006Z,18.60
2022-10-04T13:23:06.262Z,18.50
2022-10-04T13:26:11.771Z,18.40
2022-10-04T13:28:48.687Z,18.40
2022-10-04T13:31:25.301Z,18.50
2022-10-04T13:34:07.499Z,18.40
2022-10-04T13:36:51.696Z,18.30
2022-10-04T13:39:35.065Z,18.30
2022-10-04T13:42:19.180Z,18.30
2022-10-04T13:45:01.753Z,18.20
2022-10-04T13:47:46.409Z,18.20
2022-10-04T13:50:35.336Z,18.20
2022-10-04T13:53:38.074Z,18.20
2022-10-04T13:56:40.294Z,18.20
2022-10-04T13:59:23.218Z,18.20
2022-10-04T14:02:21.776Z,18.10
2022-10-04T14:05:18.956Z,18.10
2022-10-04T14:08:03.870Z,18.00
2022-10-04T14:10:53.350Z,18.10
2022-10-04T14:13:50.480Z,18.00
2022-10-04T14:16:52.774Z,18.10
2022-10-04T14:19:47.769Z,18.00
2022-10-04T14:22:46.498Z,18.00
2022-10-04T14:25:46.150Z,18.00
2022-10-04T14:28:51.300Z,17.80
2022-10-04T14:32:36.107Z,17.80
2022-10-04T14:35:14.078Z,17.70
2022-10-04T14:38:16.009Z,17.70
2022-10-04T14:41:12.558Z,17.70
2022-10-04T14:44:15.801Z,17.60
2022-10-04T14:46:57.781Z,17.60
2022-10-04T14:49:42.892Z,17.60
2022-10-04T14:52:34.193Z,17.60
2022-10-04T14:55:26.196Z,17.50
2022-10-04T14:58:13.971Z,17.60
2022-10-04T15:01:07.594Z,17.50
2022-10-04T15:03:42.709Z,17.50
2022-10-04T15:06:30.626Z,17.40
2022-10-04T15:09:22.665Z,17.40
2022-10-04T15:15:13.717Z,17.40
2022-10-04T15:17:59.886Z,17.30
2022-10-04T15:20:35.157Z,17.30
2022-10-04T15:26:55.707Z,17.40
2022-10-04T15:29:29.820Z,17.30
2022-10-04T15:32:08.282Z,17.40
2022-10-04T15:34:58.810Z,17.30
2022-10-04T15:37:41.144Z,17.30
2022-10-04T15:40:29.553Z,17.20
2022-10-04T15:43:16.381Z,17.20
2022-10-04T15:46:27.493Z,17.20
2022-10-04T15:49:22.181Z,17.10
2022-10-04T15:52:13.845Z,17.00
2022-10-04T15:55:08.095Z,17.00
2022-10-04T15:57:57.734Z,17.00
2022-10-04T16:00:28.972Z,16.90
2022-10-04T16:03:18.039Z,16.90
2022-10-04T16:06:00.352Z,16.80
2022-10-04T16:09:06.113Z,16.80
2022-10-04T16:11:52.128Z,16.80
2022-10-04T16:14:44.031Z,16.70
2022-10-04T16:17:30.905Z,16.60
2022-10-04T16:20:22.524Z,16.60
2022-10-04T16:23:27.291Z,16.50
2022-10-04T16:25:58.668Z,16.50
2022-10-04T16:29:01.231Z,16.40
2022-10-04T16:31:51.343Z,16.40
2022-10-04T16:34:53.126Z,16.30
2022-10-04T16:37:39.730Z,16.20
2022-10-04T16:40:34.030Z,16.20
2022-10-04T16:43:10.856Z,16.20
2022-10-04T16:46:14.967Z,16.10
2022-10-04T16:48:56.229Z,16.00
2022-10-04T16:51:54.251Z,16.00
2022-10-04T16:55:01.276Z,15.90
2022-10-04T16:57:31.393Z,15.90
2022-10-04T17:03:28.400Z,15.80
2022-10-04T17:06:15.287Z,15.70
2022-10-04T17:09:17.879Z,15.70
2022-10-04T17:11:58.185Z,15.60
2022-10-04T17:14:57.340Z,15.60
2022-10-04T17:17:43.929Z,15.60
2022-10-04T17:20:23.599Z,15.60
2022-10-04T17:23:06.910Z,15.50
2022-10-04T17:25:43.239Z,15.50
2022-10-04T17:28:21.956Z,15.50
2022-10-04T17:31:00.610Z,15.40
2022-10-04T17:33:43.702Z,15.40
2022-10-04T17:36:40.373Z,15.30
2022-10-04T17:39:34.805Z,15.30
2022-10-04T17:42:31.239Z,15.30
2022-10-04T17:45:28.977Z,15.20
2022-10-04T17:48:21.074Z,15.20
2022-10-04T17:51:16.898Z,15.20
2022-10-04T17:54:07.540Z,15.10
2022-10-04T17:56:41.123Z,15.10
2022-10-04T17:59:15.411Z,15.00
2022-10-04T18:01:47.883Z,15.10
2022-10-04T18:04:20.595Z,15.10
2022-10-04T18:06:56.762Z,15.00
2022-10-04T18:09:35.872Z,15.00
2022-10-04T18:12:12.477Z,15.00
2022-10-04T18:14:52.890Z,15.00
2022-10-04T18:17:39.312Z,15.00
2022-10-04T18:20:27.671Z,14.90
2022-10-04T18:23:04.057Z,14.90
2022-10-04T18:25:34.026Z,14.80
2022-10-04T18:28:07.463Z,14.80
2022-10-04T18:30:51.485Z,14.70
2022-10-04T18:33:26.042Z,14.70
2022-10-04T18:36:01.170Z,14.70
2022-10-04T18:38:31.498Z,14.60
2022-10-04T18:41:03.289Z,14.60
2022-10-04T18:43:36.906Z,14.60
2022-10-04T18:46:21.351Z,14.60
2022-10-04T18:48:55.602Z,14.60
2022-10-04T18:51:29.025Z,14.50
2022-10-04T18:57:55.518Z,14.40
2022-10-04T19:00:42.048Z,14.50
2022-10-04T19:03:24.246Z,14.50
2022-10-04T19:05:56.399Z,14.50
2022-10-04T19:08:36.871Z,14.50
2022-10-04T19:11:14.095Z,14.40
2022-10-04T19:13:50.956Z,14.40
2022-10-04T19:16:35.359Z,14.40
2022-10-04T19:19:20.606Z,14.40
2022-10-04T19:21:55.561Z,14.30
2022-10-04T19:24:45.403Z,14.20
2022-10-04T19:27:22.618Z,14.20
2022-10-04T19:30:03.642Z,14.20
2022-10-04T19:32:43.726Z,14.20
2022-10-04T19:35:25.295Z,14.20
2022-10-04T19:38:01.010Z,14.20
2022-10-04T19:40:39.511Z,14.10
2022-10-04T19:43:15.485Z,14.10
2022-10-04T19:45:51.295Z,14.10
2022-10-04T19:48:24.813Z,14.10
2022-10-04T19:50:59.191Z,14.10
2022-10-04T19:53:35.942Z,14.10
2022-10-04T19:56:07.600Z,14.00
2022-10-04T19:58:43.574Z,14.00
2022-10-04T20:01:12.761Z,14.00
2022-10-04T20:03:41.265Z,14.00
2022-10-04T20:06:10.140Z,14.10
2022-10-04T20:08:56.724Z,14.10
2022-10-04T20:11:29.538Z,14.10
2022-10-04T20:14:34.814Z,14.10
2022-10-04T20:17:07.578Z,14.10
2022-10-04T20:19:39.906Z,14.00
2022-10-04T20:22:51.442Z,14.00
2022-10-04T20:25:52.994Z,13.90
2022-10-04T20:28:42.723Z,13.90
2022-10-04T20:31:12.517Z,13.90
2022-10-04T20:33:50.158Z,13.90
2022-10-04T20:37:00.769Z,13.90
2022-10-04T20:40:01.947Z,14.00
2022-10-04T20:42:35.346Z,14.10
2022-10-04T20:45:22.490Z,14.00
2022-10-04T20:47:51.670Z,14.00
2022-10-04T20:50:38.794Z,14.00
2022-10-04T20:53:14.458Z,13.90
2022-10-04T20:55:44.272Z,13.90
2022-10-04T20:58:32.619Z,13.90
2022-10-04T21:01:13.571Z,13.90
2022-10-04T21:03:41.613Z,13.90
2022-10-04T21:06:13.325Z,13.90
2022-10-04T21:08:42.002Z,13.90
2022-10-04T21:11:21.173Z,13.90
2022-10-04T21:14:00.502Z,13.80
2022-10-04T21:16:57.469Z,13.90
2022-10-04T21:19:47.346Z,13.80
2022-10-04T21:22:42.121Z,13.90
2022-10-04T21:25:39.918Z,13.80
2022-10-04T21:28:34.194Z,13.90
2022-10-04T21:31:04.065Z,13.80
2022-10-04T21:33:36.339Z,13.80
2022-10-04T21:36:05.665Z,13.80
2022-10-04T21:38:35.117Z,13.80
2022-10-04T21:41:03.477Z,13.90
2022-10-04T21:43:31.980Z,14.00
2022-10-04T21:46:00.047Z,13.90
2022-10-04T21:48:28.382Z,13.80
2022-10-04T21:50:56.634Z,13.80
2022-10-04T21:53:24.625Z,13.80
2022-10-04T21:55:53.975Z,13.70
2022-10-04T21:58:22.536Z,13.70
2022-10-04T22:00:50.858Z,13.70
2022-10-04T22:03:18.916Z,13.70
2022-10-04T22:05:46.945Z,13.70
2022-10-04T22:08:14.938Z,13.70
2022-10-04T22:10:43.406Z,13.70
2022-10-04T22:13:12.749Z,13.70
2022-10-04T22:15:40.816Z,13.70
2022-10-04T22:18:09.044Z,13.70
2022-10-04T22:20:38.494Z,13.80
2022-10-04T22:23:14.964Z,13.70
2022-10-04T22:25:43.162Z,13.70
2022-10-04T22:28:21.696Z,13.70
2022-10-04T22:30:50.578Z,13.70
2022-10-04T22:33:29.049Z,13.80
2022-10-04T22:35:58.916Z,13.80
2022-10-04T22:38:26.908Z,13.80
2022-10-04T22:40:54.998Z,13.80
2022-10-04T22:43:24.418Z,13.80
2022-10-04T22:45:53.553Z,13.70
2022-10-04T22:48:21.593Z,13.80
2022-10-04T22:50:51.161Z,13.70
2022-10-04T22:53:21.657Z,13.80
2022-10-04T22:55:50.953Z,13.70
2022-10-04T22:58:20.942Z,13.70
2022-10-04T23:00:50.897Z,13.70
2022-10-04T23:03:28.003Z,13.70
2022-10-04T23:05:56.238Z,13.70
2022-10-04T23:08:24.469Z,13.70
2022-10-04T23:10:55.758Z,13.80
2022-10-04T23:13:24.960Z,13.80
2022-10-04T23:15:59.711Z,13.80
2022-10-04T23:18:29.354Z,13.80
2022-10-04T23:21:00.435Z,13.80
2022-10-04T23:23:29.374Z,13.80
2022-10-04T23:25:57.393Z,13.80
2022-10-04T23:28:25.851Z,13.80
2022-10-04T23:31:05.833Z,13.90
2022-10-04T23:33:33.874Z,13.90
2022-10-04T23:36:01.901Z,13.90
2022-10-04T23:38:31.359Z,13.90
2022-10-04T23:40:59.834Z,14.00
2022-10-04T23:43:30.878Z,14.00
2022-10-04T23:46:00.334Z,14.00
2022-10-04T23:48:31.964Z,14.00
2022-10-04T23:51:00.920Z,14.00
2022-10-04T23:53:31.405Z,14.00
2022-10-04T23:56:02.994Z,14.20
2022-10-04T23:58:35.486Z,14.20
